Time;durP1;ratioP1;P1;durP2;ratioP2;P2;SDS_P1;SDS_P2;PMS_P1;PMS_P2;Temp;Humidity;BMP_temperature;BMP_pressure;BME280_temperature;BME280_humidity;BME280_pressure;Samples;Min_cycle;Max_cycle;Signal;HPM_P1;HPM_P2
2023/07/18 00:00:58;;;;;;;7.10;3.60;;;;;;;28.33;37.28;100469.46;107813;1287;21988;-60
2023/07/18 00:03:24;;;;;;;6.70;4.20;;;;;;;28.23;37.51;100464.22;108017;1289;21992;-69
2023/07/18 00:05:50;;;;;;;6.70;3.40;;;;;;;28.17;37.52;100460.41;107891;1289;23722;-60
2023/07/18 00:08:15;;;;;;;7.30;4.00;;;;;;;28.20;37.34;100458.73;107975;1283;22028;-70
2023/07/18 00:10:42;;;;;;;6.80;3.70;;;;;;;28.18;37.41;100456.35;107932;1289;21988;-69
2023/07/18 00:13:08;;;;;;;4.90;3.60;;;;;;;28.16;37.54;100454.17;107990;1289;21992;-69
2023/07/18 00:15:34;;;;;;;6.70;3.60;;;;;;;28.14;37.51;100449.29;107721;1287;21994;-70
2023/07/18 00:18:01;;;;;;;5.90;4.20;;;;;;;28.11;37.64;100445.73;107945;1289;22034;-69
2023/07/18 00:20:27;;;;;;;6.30;3.70;;;;;;;28.09;37.65;100441.95;108028;1287;22019;-69
2023/07/18 00:22:53;;;;;;;8.50;4.10;;;;;;;28.07;37.60;100435.98;107993;1289;21989;-70
2023/07/18 00:25:19;;;;;;;5.90;3.50;;;;;;;28.06;37.70;100425.63;107997;1289;24388;-60
2023/07/18 00:27:53;;;;;;;6.90;4.00;;;;;;;28.04;37.74;100425.23;107975;1279;21993;-70
2023/07/18 00:30:20;;;;;;;9.10;4.80;;;;;;;28.01;37.71;100426.39;107986;1286;23094;-69
2023/07/18 00:32:46;;;;;;;8.70;3.80;;;;;;;27.99;37.76;100424.44;107947;1286;21999;-60
2023/07/18 00:35:12;;;;;;;6.50;3.90;;;;;;;27.95;37.99;100422.39;107983;1286;21990;-69
2023/07/18 00:37:39;;;;;;;5.40;3.60;;;;;;;27.91;38.03;100418.42;108008;1284;23625;-61
2023/07/18 00:40:10;;;;;;;7.70;4.00;;;;;;;27.87;38.15;100413.88;108041;1289;21996;-70
2023/07/18 00:42:39;;;;;;;7.90;3.80;;;;;;;27.84;38.05;100410.31;107951;1289;21990;-60
2023/07/18 00:45:08;;;;;;;6.90;4.00;;;;;;;27.84;38.20;100406.55;107958;1288;22744;-66
2023/07/18 00:47:42;;;;;;;5.60;3.80;;;;;;;27.84;38.18;100404.55;108087;1287;22048;-60
2023/07/18 00:50:14;;;;;;;8.40;4.10;;;;;;;27.83;38.19;100406.06;108009;1283;22032;-69
2023/07/18 00:52:48;;;;;;;8.80;4.40;;;;;;;27.84;38.31;100401.46;108031;1287;22044;-70
2023/07/18 00:55:16;;;;;;;7.50;4.00;;;;;;;27.84;38.34;100398.94;108113;1286;21987;-70
2023/07/18 00:57:42;;;;;;;5.80;4.10;;;;;;;27.82;38.28;100397.59;108039;1289;22007;-70
2023/07/18 01:00:11;;;;;;;5.60;4.00;;;;;;;27.79;38.37;100395.84;108093;1287;23819;-60
2023/07/18 01:02:38;;;;;;;4.90;3.80;;;;;;;27.75;38.49;100390.89;108138;1283;23725;-60
2023/07/18 01:05:04;;;;;;;7.70;4.00;;;;;;;27.71;38.55;100385.64;108104;1287;21999;-60
2023/07/18 01:07:30;;;;;;;7.80;4.60;;;;;;;27.68;38.68;100387.70;108104;1279;21990;-60
2023/07/18 01:10:24;;;;;;;6.30;4.20;;;;;;;27.65;38.68;100383.84;108124;1284;21986;-60
2023/07/18 01:12:56;;;;;;;8.90;3.90;;;;;;;27.63;38.72;100381.49;108130;1287;21994;-60
2023/07/18 01:15:22;;;;;;;6.10;3.80;;;;;;;27.61;38.72;100378.16;108111;1284;21993;-60
2023/07/18 01:17:48;;;;;;;6.80;3.90;;;;;;;27.61;38.57;100378.70;108052;1283;21992;-62
2023/07/18 01:20:26;;;;;;;7.80;4.60;;;;;;;27.60;38.89;100374.12;108135;1288;21988;-61
2023/07/18 01:22:58;;;;;;;5.80;4.10;;;;;;;27.59;38.75;100373.67;108071;1280;21995;-71
2023/07/18 01:25:24;;;;;;;5.20;4.20;;;;;;;27.59;38.76;100372.98;108077;1284;22027;-71
2023/07/18 01:27:51;;;;;;;7.10;3.90;;;;;;;27.57;38.87;100374.95;108065;1281;21992;-71
2023/07/18 01:30:19;;;;;;;9.70;4.50;;;;;;;27.53;38.88;100374.90;108103;1286;21991;-70
2023/07/18 01:32:48;;;;;;;6.40;4.10;;;;;;;27.53;38.83;100375.08;108118;1288;21990;-71
2023/07/18 01:35:15;;;;;;;6.10;4.10;;;;;;;27.51;39.08;100375.98;108094;1283;22767;-60
2023/07/18 01:37:44;;;;;;;7.10;4.20;;;;;;;27.48;39.20;100374.27;108118;1280;21987;-71
2023/07/18 01:40:14;;;;;;;6.90;4.50;;;;;;;27.43;39.22;100371.34;107886;1288;21988;-59
2023/07/18 01:42:40;;;;;;;7.50;4.00;;;;;;;27.40;39.24;100372.35;108109;1283;21997;-60
2023/07/18 01:45:09;;;;;;;5.80;4.30;;;;;;;27.35;39.47;100368.44;108021;1280;21992;-70
2023/07/18 01:47:39;;;;;;;7.50;4.10;;;;;;;27.34;39.53;100366.77;107969;1289;21996;-61
2023/07/18 01:50:06;;;;;;;9.70;4.40;;;;;;;27.31;39.46;100366.29;107925;1283;21986;-60
2023/07/18 01:52:31;;;;;;;10.70;4.00;;;;;;;27.30;39.47;100365.45;107955;1283;21984;-60
2023/07/18 01:54:58;;;;;;;9.00;4.30;;;;;;;27.27;39.51;100363.70;107924;1276;21990;-60
2023/07/18 01:57:29;;;;;;;7.60;4.40;;;;;;;27.27;39.60;100362.95;107928;1284;22030;-60
2023/07/18 01:59:55;;;;;;;5.90;4.20;;;;;;;27.27;39.71;100359.55;107963;1283;21987;-60
2023/07/18 02:02:21;;;;;;;6.60;4.00;;;;;;;27.26;39.83;100356.09;107885;1289;22005;-72
2023/07/18 02:04:49;;;;;;;6.80;3.80;;;;;;;27.24;39.73;100350.63;107997;1286;23647;-60
2023/07/18 02:07:15;;;;;;;6.50;4.40;;;;;;;27.23;39.72;100347.09;107902;1285;22003;-61
2023/07/18 02:09:41;;;;;;;7.80;4.10;;;;;;;27.24;39.75;100347.02;107912;1287;22766;-72
2023/07/18 02:12:08;;;;;;;10.90;4.20;;;;;;;27.22;39.99;100342.88;107904;1289;21990;-70
2023/07/18 02:14:37;;;;;;;6.70;4.10;;;;;;;27.19;39.92;100344.19;107935;1283;21990;-71
2023/07/18 02:17:03;;;;;;;6.20;3.90;;;;;;;27.13;40.08;100344.11;107962;1289;21992;-60
2023/07/18 02:19:29;;;;;;;7.10;4.70;;;;;;;27.15;40.01;100343.42;107896;1287;21993;-60
2023/07/18 02:21:55;;;;;;;7.70;4.10;;;;;;;27.15;40.15;100342.16;107940;1284;22403;-71
2023/07/18 02:24:20;;;;;;;6.70;4.30;;;;;;;27.13;40.19;100342.66;107893;1289;21996;-60
2023/07/18 02:26:46;;;;;;;7.90;4.50;;;;;;;27.11;40.19;100342.18;107954;1283;22022;-60
2023/07/18 02:29:13;;;;;;;7.60;4.20;;;;;;;27.09;40.12;100342.67;107934;1287;22277;-60
2023/07/18 02:31:40;;;;;;;6.50;4.20;;;;;;;27.09;40.28;100338.53;107925;1287;21988;-61
2023/07/18 02:34:06;;;;;;;7.50;4.20;;;;;;;27.08;40.29;100341.08;107909;1286;22009;-72
2023/07/18 02:36:32;;;;;;;7.30;4.30;;;;;;;27.07;40.38;100335.31;107890;1289;21990;-71
2023/07/18 02:38:59;;;;;;;6.50;4.00;;;;;;;27.05;40.47;100336.38;107913;1289;23654;-60
2023/07/18 02:41:25;;;;;;;9.50;4.30;;;;;;;27.03;40.63;100335.61;107950;1279;22417;-71
2023/07/18 02:43:50;;;;;;;8.10;4.10;;;;;;;27.02;40.84;100333.36;107902;1287;21998;-60
2023/07/18 02:46:16;;;;;;;6.10;4.20;;;;;;;27.03;40.66;100333.65;108045;1288;21989;-70
2023/07/18 02:48:42;;;;;;;10.20;4.50;;;;;;;27.03;40.86;100334.69;108123;1288;21988;-71
2023/07/18 02:51:08;;;;;;;9.40;4.00;;;;;;;27.00;41.14;100334.34;108080;1287;22051;-61
2023/07/18 02:53:34;;;;;;;6.60;3.60;;;;;;;27.00;41.10;100335.26;108113;1287;22028;-60
2023/07/18 02:55:59;;;;;;;8.10;3.70;;;;;;;27.02;41.39;100336.94;108055;1287;21995;-60
2023/07/18 02:58:26;;;;;;;8.20;3.40;;;;;;;27.03;41.22;100336.64;108015;1280;22168;-60
2023/07/18 03:00:53;;;;;;;13.30;4.20;;;;;;;27.06;41.51;100338.39;107978;1284;22180;-60
2023/07/18 03:03:18;;;;;;;9.10;4.40;;;;;;;27.09;41.52;100336.17;107952;1284;21969;-72
2023/07/18 03:05:44;;;;;;;11.00;4.20;;;;;;;27.11;41.63;100334.56;107971;1283;21994;-60
2023/07/18 03:08:09;;;;;;;8.50;4.30;;;;;;;27.13;41.59;100332.40;107966;1287;21990;-62
2023/07/18 03:10:37;;;;;;;9.90;4.40;;;;;;;27.18;41.64;100333.66;107943;1283;22047;-71
2023/07/18 03:13:03;;;;;;;6.80;4.40;;;;;;;27.21;41.83;100331.45;107963;1284;22000;-72
2023/07/18 03:15:28;;;;;;;11.50;4.60;;;;;;;27.18;42.02;100339.94;107838;1283;22388;-60
2023/07/18 03:17:54;;;;;;;11.90;4.70;;;;;;;27.19;42.45;100343.86;107909;1289;22027;-71
2023/07/18 03:20:20;;;;;;;22.40;4.80;;;;;;;27.19;42.39;100336.39;107694;1283;21990;-61
2023/07/18 03:22:46;;;;;;;14.40;4.80;;;;;;;27.23;42.47;100335.58;107996;1289;21992;-61
2023/07/18 03:25:12;;;;;;;13.50;3.90;;;;;;;27.20;42.41;100339.05;107978;1286;22006;-60
2023/07/18 03:27:37;;;;;;;9.90;5.10;;;;;;;27.21;42.50;100338.06;107838;1284;22291;-60
2023/07/18 03:30:06;;;;;;;7.60;3.90;;;;;;;27.24;42.48;100336.56;107984;1287;22028;-60
2023/07/18 03:32:35;;;;;;;9.00;4.30;;;;;;;27.27;42.54;100335.05;108025;1277;22012;-70
2023/07/18 03:35:00;;;;;;;11.30;3.90;;;;;;;27.30;42.63;100330.46;107986;1284;21991;-61
2023/07/18 03:37:26;;;;;;;7.30;3.80;;;;;;;27.38;42.69;100329.27;107988;1287;22459;-71
2023/07/18 03:39:52;;;;;;;9.20;4.10;;;;;;;27.43;43.27;100324.20;108050;1283;21990;-72
2023/07/18 03:42:18;;;;;;;6.70;3.80;;;;;;;27.43;43.21;100319.63;107974;1283;21962;-61
2023/07/18 03:44:44;;;;;;;6.20;3.60;;;;;;;27.46;43.01;100315.85;107989;1280;21990;-60
2023/07/18 03:47:11;;;;;;;7.70;3.70;;;;;;;27.53;43.02;100312.55;108095;1287;21991;-60
2023/07/18 03:49:36;;;;;;;8.80;4.10;;;;;;;27.62;43.21;100308.38;108102;1284;21994;-60
2023/07/18 03:52:04;;;;;;;8.90;3.80;;;;;;;27.64;43.08;100306.26;108078;1288;21983;-70
2023/07/18 03:54:30;;;;;;;9.00;3.90;;;;;;;27.74;43.00;100307.70;108124;1282;23052;-70
2023/07/18 03:56:55;;;;;;;8.10;3.90;;;;;;;27.87;42.89;100313.81;108149;1277;22021;-61
2023/07/18 03:59:21;;;;;;;7.30;3.80;;;;;;;27.98;43.26;100314.52;108063;1287;182323;-59
2023/07/18 04:01:46;;;;;;;6.70;3.90;;;;;;;28.09;43.32;100316.11;108182;1287;21984;-61
2023/07/18 04:04:13;;;;;;;10.10;4.10;;;;;;;28.20;43.10;100316.59;108195;1277;21997;-59
2023/07/18 04:06:39;;;;;;;7.20;4.00;;;;;;;28.29;43.59;100317.39;108163;1287;22027;-71
2023/07/18 04:09:07;;;;;;;5.90;3.70;;;;;;;28.42;43.21;100319.33;108257;1284;23742;-71
2023/07/18 04:11:32;;;;;;;9.40;3.90;;;;;;;28.57;43.29;100314.62;108131;1287;22176;-60
2023/07/18 04:14:00;;;;;;;6.40;3.70;;;;;;;28.73;43.15;100313.70;108204;1283;22452;-71
2023/07/18 04:16:25;;;;;;;5.60;3.70;;;;;;;28.88;42.90;100317.06;108231;1287;21997;-60
2023/07/18 04:18:51;;;;;;;5.10;3.70;;;;;;;29.05;42.76;100320.59;108154;1287;21996;-70
2023/07/18 04:21:17;;;;;;;9.60;4.40;;;;;;;29.23;42.61;100318.46;108183;1283;21989;-70
2023/07/18 04:23:42;;;;;;;9.30;4.10;;;;;;;29.41;42.64;100317.31;108232;1280;21997;-70
2023/07/18 04:26:09;;;;;;;8.00;3.60;;;;;;;29.64;42.42;100317.55;108129;1280;22059;-72
2023/07/18 04:28:36;;;;;;;10.50;5.00;;;;;;;29.85;42.44;100317.38;108018;1286;21986;-58
2023/07/18 04:31:02;;;;;;;11.70;4.00;;;;;;;30.08;42.02;100319.00;108189;1283;22024;-60
2023/07/18 04:33:33;;;;;;;5.00;3.60;;;;;;;30.30;41.69;100316.45;108151;1277;21984;-72
2023/07/18 04:35:59;;;;;;;5.50;3.10;;;;;;;30.54;41.09;100316.49;108263;1287;21992;-71
2023/07/18 04:38:25;;;;;;;8.30;3.90;;;;;;;30.79;41.09;100314.63;108228;1283;21983;-72
2023/07/18 04:40:50;;;;;;;7.70;3.60;;;;;;;31.03;40.74;100308.40;107963;1287;22143;-60
2023/07/18 04:43:16;;;;;;;10.60;3.90;;;;;;;31.21;40.41;100307.71;108135;1287;22026;-62
2023/07/18 04:45:45;;;;;;;9.40;3.90;;;;;;;31.38;40.03;100304.20;108125;1284;21986;-71
2023/07/18 04:48:15;;;;;;;13.30;3.50;;;;;;;31.53;39.63;100306.63;108119;1288;21967;-61
2023/07/18 04:50:42;;;;;;;7.50;3.20;;;;;;;31.64;39.10;100311.13;108105;1287;21994;-60
2023/07/18 04:53:08;;;;;;;6.60;3.70;;;;;;;31.74;38.82;100310.75;108272;1283;21953;-61
2023/07/18 04:55:34;;;;;;;7.50;3.10;;;;;;;31.81;38.43;100313.31;108191;1280;22009;-72
2023/07/18 04:58:02;;;;;;;8.30;3.50;;;;;;;31.84;38.21;100311.37;108168;1287;21990;-62
2023/07/18 05:00:29;;;;;;;7.20;3.40;;;;;;;31.91;38.14;100311.90;108172;1286;21990;-71
2023/07/18 05:02:54;;;;;;;8.00;3.20;;;;;;;31.96;37.72;100307.69;108170;1281;21984;-61
2023/07/18 05:05:20;;;;;;;12.10;4.00;;;;;;;32.01;37.64;100307.94;108148;1287;22001;-61
2023/07/18 05:07:47;;;;;;;5.10;3.50;;;;;;;32.09;37.53;100309.45;108132;1280;21983;-72
2023/07/18 05:10:13;;;;;;;6.10;3.30;;;;;;;32.17;37.45;100310.45;108269;1287;23643;-71
2023/07/18 05:12:39;;;;;;;5.80;3.40;;;;;;;32.24;37.36;100308.67;108203;1287;21981;-62
2023/07/18 05:15:06;;;;;;;5.20;3.70;;;;;;;32.31;37.48;100311.95;108120;1281;21987;-63
2023/07/18 05:17:32;;;;;;;6.10;3.80;;;;;;;32.39;37.45;100313.77;108166;1287;21999;-71
2023/07/18 05:19:57;;;;;;;6.30;3.40;;;;;;;32.48;37.07;100311.23;108179;1287;21996;-61
2023/07/18 05:22:23;;;;;;;8.60;3.40;;;;;;;32.53;36.76;100304.38;108151;1287;21991;-62
2023/07/18 05:24:49;;;;;;;6.40;3.20;;;;;;;32.60;36.77;100299.52;108220;1277;21992;-61
2023/07/18 05:27:14;;;;;;;8.50;3.80;;;;;;;32.68;36.57;100296.25;108172;1287;21998;-61
2023/07/18 05:29:40;;;;;;;4.80;3.10;;;;;;;32.75;36.45;100289.32;108172;1280;21985;-61
2023/07/18 05:32:06;;;;;;;6.20;3.60;;;;;;;32.81;36.35;100288.27;108175;1277;21996;-62
2023/07/18 05:34:33;;;;;;;5.50;3.20;;;;;;;32.90;36.34;100286.73;108175;1287;21989;-71
2023/07/18 05:37:00;;;;;;;10.90;3.80;;;;;;;33.00;36.27;100284.92;108164;1281;21988;-69
2023/07/18 05:39:27;;;;;;;11.90;3.60;;;;;;;33.10;36.15;100287.38;108138;1280;21986;-61
2023/07/18 05:41:54;;;;;;;5.70;3.20;;;;;;;33.19;35.82;100289.59;108149;1280;21985;-61
2023/07/18 05:44:20;;;;;;;14.60;3.70;;;;;;;33.30;35.47;100289.73;108156;1287;22458;-61
2023/07/18 05:46:46;;;;;;;15.70;4.10;;;;;;;33.41;35.43;100294.83;108136;1287;21991;-70
2023/07/18 05:49:11;;;;;;;6.60;3.50;;;;;;;33.56;35.18;100302.67;108110;1287;21983;-68
2023/07/18 05:51:37;;;;;;;5.70;3.90;;;;;;;33.65;34.30;100307.36;108122;1283;21982;-62
2023/07/18 05:54:04;;;;;;;6.40;3.50;;;;;;;33.71;34.19;100315.04;108237;1281;21983;-61
2023/07/18 05:56:31;;;;;;;7.60;3.50;;;;;;;33.74;34.11;100318.86;108155;1281;21987;-61
2023/07/18 05:58:57;;;;;;;8.60;3.80;;;;;;;33.70;33.72;100324.95;108109;1287;21983;-70
2023/07/18 06:01:23;;;;;;;5.80;3.40;;;;;;;33.62;33.67;100329.46;108145;1287;21987;-62
2023/07/18 06:03:49;;;;;;;6.90;3.70;;;;;;;33.55;33.98;100325.01;108174;1287;22456;-69
2023/07/18 06:06:15;;;;;;;10.90;3.60;;;;;;;33.52;33.89;100328.45;108221;1284;22038;-61
2023/07/18 06:08:42;;;;;;;6.50;3.30;;;;;;;33.44;33.91;100336.57;108223;1285;21989;-61
2023/07/18 06:11:07;;;;;;;9.50;3.60;;;;;;;33.34;33.65;100336.91;108151;1284;21964;-69
2023/07/18 06:13:33;;;;;;;10.00;4.00;;;;;;;33.27;33.67;100334.96;108163;1287;21985;-61
2023/07/18 06:15:59;;;;;;;6.90;4.10;;;;;;;33.09;33.75;100329.04;108157;1277;21992;-69
2023/07/18 06:18:26;;;;;;;7.50;3.00;;;;;;;32.96;33.84;100332.11;108110;1287;22022;-69
2023/07/18 06:20:52;;;;;;;7.80;3.50;;;;;;;32.85;33.77;100332.93;108154;1283;21991;-71
2023/07/18 06:23:17;;;;;;;7.60;4.00;;;;;;;32.70;33.81;100335.73;108138;1285;21999;-61
2023/07/18 06:25:43;;;;;;;9.90;3.70;;;;;;;32.56;34.08;100337.61;108128;1287;21999;-61
2023/07/18 06:28:09;;;;;;;11.80;3.80;;;;;;;32.38;34.70;100342.88;108142;1287;21998;-62
2023/07/18 06:30:35;;;;;;;7.40;3.70;;;;;;;32.28;34.82;100348.15;108141;1277;21989;-62
2023/07/18 06:33:01;;;;;;;6.10;3.40;;;;;;;32.15;35.02;100356.00;108200;1287;22037;-69
2023/07/18 06:35:26;;;;;;;9.00;3.40;;;;;;;32.01;35.71;100353.08;108157;1277;21986;-70
2023/07/18 06:37:52;;;;;;;6.00;3.10;;;;;;;31.84;36.14;100358.88;108226;1285;22002;-62
2023/07/18 06:40:18;;;;;;;11.00;3.30;;;;;;;31.68;36.28;100363.70;108125;1287;21980;-70
2023/07/18 06:47:18;;;;;;;10.30;3.30;;;;;;;31.51;36.82;100357.86;107509;1288;544176;-61
2023/07/18 06:49:44;;;;;;;8.70;3.00;;;;;;;31.45;36.85;100361.09;107766;1294;22465;-61
2023/07/18 06:52:10;;;;;;;7.30;3.30;;;;;;;31.43;37.30;100352.42;107802;1294;22003;-68
2023/07/18 06:54:36;;;;;;;5.90;3.60;;;;;;;31.40;37.24;100354.52;107796;1294;22001;-68
2023/07/18 06:57:02;;;;;;;6.20;3.50;;;;;;;31.38;37.25;100358.89;107525;1294;22192;-70
2023/07/18 06:59:28;;;;;;;6.10;3.70;;;;;;;31.37;37.26;100354.10;107543;1295;22172;-69
2023/07/18 07:01:53;;;;;;;6.30;3.60;;;;;;;31.37;37.43;100344.50;107453;1292;414006;-61
2023/07/18 07:04:19;;;;;;;7.70;3.60;;;;;;;31.45;37.23;100338.11;107816;1292;22068;-60
2023/07/18 07:06:45;;;;;;;5.50;3.90;;;;;;;31.53;37.28;100332.73;107774;1289;22110;-70
2023/07/18 07:09:13;;;;;;;6.50;3.90;;;;;;;31.66;37.50;100331.68;107700;1287;22007;-69
2023/07/18 07:11:44;;;;;;;6.30;3.50;;;;;;;31.83;37.39;100321.36;107750;1292;21998;-71
2023/07/18 07:14:11;;;;;;;23.00;5.80;;;;;;;32.10;38.08;100321.36;107844;1287;21990;-70
2023/07/18 07:16:37;;;;;;;8.70;4.10;;;;;;;32.38;37.63;100315.70;107727;1292;21991;-62
2023/07/18 07:19:05;;;;;;;6.90;3.50;;;;;;;32.68;36.06;100317.84;107814;1292;21995;-69
2023/07/18 07:21:31;;;;;;;6.50;4.00;;;;;;;32.98;35.38;100319.16;107829;1292;22035;-70
2023/07/18 07:23:56;;;;;;;4.50;3.40;;;;;;;33.25;33.99;100323.95;107835;1292;21999;-60
2023/07/18 07:26:22;;;;;;;5.80;3.40;;;;;;;33.45;33.70;100318.39;107824;1292;22005;-60
2023/07/18 07:28:48;;;;;;;5.70;3.70;;;;;;;33.54;32.50;100314.17;107810;1292;22003;-69
2023/07/18 07:31:14;;;;;;;5.20;3.40;;;;;;;33.55;31.72;100313.71;107796;1286;21993;-61
2023/07/18 07:33:41;;;;;;;7.60;3.90;;;;;;;33.58;32.31;100311.59;107789;1292;22008;-71
2023/07/18 07:36:09;;;;;;;5.90;3.50;;;;;;;33.59;32.51;100312.93;108138;1289;21998;-69
2023/07/18 07:38:35;;;;;;;7.30;3.60;;;;;;;33.49;32.52;100310.52;108145;1290;22100;-60
2023/07/18 07:41:01;;;;;;;6.70;3.30;;;;;;;33.44;32.68;100309.63;108021;1283;21993;-60
2023/07/18 07:43:27;;;;;;;8.80;4.20;;;;;;;33.42;32.93;100311.71;108042;1288;21998;-70
2023/07/18 07:45:53;;;;;;;9.60;4.40;;;;;;;33.38;33.50;100313.02;107798;1292;22064;-69
2023/07/18 07:48:20;;;;;;;10.50;4.20;;;;;;;33.35;33.71;100312.22;107858;1289;23407;-70
2023/07/18 07:50:48;;;;;;;12.60;4.10;;;;;;;33.33;34.10;100303.70;108073;1284;21996;-70
2023/07/18 07:53:14;;;;;;;6.60;3.80;;;;;;;33.38;34.35;100299.52;108057;1289;21999;-62
2023/07/18 07:55:40;;;;;;;7.40;3.80;;;;;;;33.39;34.28;100294.01;108073;1290;21993;-61
2023/07/18 07:58:06;;;;;;;7.90;3.60;;;;;;;33.36;34.48;100284.66;108032;1284;22016;-72
2023/07/18 08:00:32;;;;;;;6.00;3.30;;;;;;;33.34;34.33;100279.27;108067;1286;22172;-61
2023/07/18 08:02:57;;;;;;;7.90;3.60;;;;;;;33.31;34.21;100277.73;108084;1286;21993;-70
2023/07/18 08:05:23;;;;;;;7.20;4.20;;;;;;;33.28;34.69;100275.78;108081;1287;21992;-61
2023/07/18 08:07:49;;;;;;;7.00;3.90;;;;;;;33.30;34.92;100275.90;108046;1291;22043;-61
2023/07/18 08:10:17;;;;;;;8.30;3.70;;;;;;;33.36;35.02;100279.38;108082;1290;21995;-61
2023/07/18 08:12:43;;;;;;;8.10;4.10;;;;;;;33.41;35.22;100277.75;108092;1289;21995;-72
2023/07/18 08:15:08;;;;;;;6.20;3.80;;;;;;;33.46;35.39;100278.34;108188;1283;23724;-71
2023/07/18 08:17:34;;;;;;;5.20;3.80;;;;;;;33.52;35.53;100278.80;107754;1290;22001;-71
2023/07/18 08:20:00;;;;;;;6.20;4.10;;;;;;;33.68;35.46;100276.97;107807;1290;22101;-72
2023/07/18 08:22:26;;;;;;;6.40;4.10;;;;;;;33.88;35.71;100277.14;107784;1290;21997;-63
2023/07/18 08:24:52;;;;;;;9.30;4.70;;;;;;;34.13;35.92;100271.02;107876;1287;21995;-71
2023/07/18 08:27:17;;;;;;;8.20;4.60;;;;;;;34.35;36.01;100269.98;107777;1287;22003;-71
2023/07/18 08:29:43;;;;;;;5.70;3.70;;;;;;;34.63;35.72;100263.00;107782;1290;22108;-62
2023/07/18 08:32:09;;;;;;;7.10;4.50;;;;;;;34.94;35.74;100255.35;107723;1290;21992;-64
2023/07/18 08:34:35;;;;;;;6.10;3.90;;;;;;;35.31;35.88;100247.31;107801;1290;21982;-71
2023/07/18 08:37:05;;;;;;;10.20;5.80;;;;;;;35.71;35.56;100244.93;107873;1286;23626;-72
2023/07/18 08:39:31;;;;;;;8.20;3.90;;;;;;;35.93;34.95;100241.02;107947;1279;21993;-62
2023/07/18 08:41:57;;;;;;;6.90;4.50;;;;;;;36.11;34.86;100237.89;107851;1283;22458;-71
2023/07/18 08:44:23;;;;;;;10.10;4.50;;;;;;;36.21;34.52;100230.98;107828;1290;22005;-69
2023/07/18 08:46:49;;;;;;;16.10;4.80;;;;;;;36.33;33.99;100231.41;107797;1290;21993;-71
2023/07/18 08:49:18;;;;;;;15.30;4.40;;;;;;;36.32;33.11;100229.71;107696;1289;23719;-68
2023/07/18 08:51:44;;;;;;;7.40;3.70;;;;;;;36.38;32.34;100220.90;107824;1290;22002;-60
2023/07/18 08:54:10;;;;;;;10.50;4.30;;;;;;;36.38;31.43;100215.42;107779;1289;22000;-68
2023/07/18 08:56:37;;;;;;;11.10;3.50;;;;;;;36.50;31.60;100211.23;107773;1280;22446;-69
2023/07/18 08:59:03;;;;;;;7.20;3.80;;;;;;;36.53;31.64;100203.67;107791;1290;21995;-61
2023/07/18 09:01:29;;;;;;;9.50;3.70;;;;;;;36.68;31.51;100204.34;107789;1287;21992;-68
2023/07/18 09:03:55;;;;;;;6.70;3.60;;;;;;;36.89;31.58;100203.57;107931;1283;22000;-63
2023/07/18 09:06:21;;;;;;;8.40;3.80;;;;;;;37.09;31.25;100198.49;107949;1286;21995;-60
2023/07/18 09:08:47;;;;;;;8.70;3.50;;;;;;;37.18;30.65;100195.50;107921;1290;21995;-61
2023/07/18 09:11:17;;;;;;;5.30;3.30;;;;;;;37.36;31.03;100193.39;107814;1284;21997;-61
2023/07/18 09:13:43;;;;;;;5.70;3.30;;;;;;;37.49;30.76;100189.16;107931;1280;21995;-68
2023/07/18 09:16:15;;;;;;;9.00;4.20;;;;;;;37.64;30.40;100191.06;107928;1284;22000;-68
2023/07/18 09:18:54;;;;;;;7.80;3.80;;;;;;;37.73;30.02;100185.54;107778;1287;23718;-68
2023/07/18 09:21:21;;;;;;;13.40;3.60;;;;;;;37.85;29.75;100183.16;107947;1290;21997;-68
2023/07/18 09:23:47;;;;;;;25.70;4.80;;;;;;;38.07;29.34;100187.60;107992;1285;21994;-61
2023/07/18 09:26:13;;;;;;;12.10;3.90;;;;;;;38.15;29.36;100194.59;108028;1290;22046;-65
2023/07/18 09:28:39;;;;;;;5.80;3.80;;;;;;;38.23;29.51;100192.80;107976;1287;22000;-62
2023/07/18 09:31:18;;;;;;;4.60;3.20;;;;;;;38.32;29.34;100189.83;108003;1288;21995;-63
2023/07/18 09:33:45;;;;;;;7.10;3.50;;;;;;;38.53;29.75;100183.73;107923;1289;21995;-69
2023/07/18 09:36:19;;;;;;;7.80;3.20;;;;;;;38.65;29.15;100180.55;109955;1283;21915;-67
2023/07/18 09:38:49;;;;;;;7.90;3.50;;;;;;;38.75;28.88;100178.19;109969;1281;22403;-65
2023/07/18 09:41:19;;;;;;;8.30;3.60;;;;;;;38.81;28.85;100173.55;109968;1290;21899;-70
2023/07/18 09:43:50;;;;;;;9.40;3.60;;;;;;;38.90;28.71;100170.30;109691;1283;21994;-60
2023/07/18 09:46:16;;;;;;;8.00;2.90;;;;;;;39.02;28.52;100165.70;108958;1284;21992;-67
2023/07/18 09:48:43;;;;;;;6.60;3.10;;;;;;;39.17;28.08;100163.52;107949;1289;22027;-60
2023/07/18 09:51:13;;;;;;;6.50;3.10;;;;;;;39.26;28.11;100160.14;107982;1289;23612;-67
2023/07/18 09:53:40;;;;;;;5.30;3.30;;;;;;;39.38;27.69;100159.23;107995;1290;23159;-61
2023/07/18 09:56:06;;;;;;;4.40;2.80;;;;;;;39.50;28.07;100155.61;107808;1290;21988;-66
2023/07/18 09:58:34;;;;;;;10.30;3.60;;;;;;;39.67;27.71;100150.83;107820;1286;22010;-61
2023/07/18 10:01:00;;;;;;;6.50;3.30;;;;;;;39.79;26.97;100146.56;108005;1289;21999;-62
2023/07/18 10:03:26;;;;;;;7.30;3.50;;;;;;;39.82;26.56;100149.45;107812;1289;22011;-63
2023/07/18 10:05:52;;;;;;;8.80;3.80;;;;;;;39.97;26.87;100151.36;108010;1290;21990;-68
2023/07/18 10:08:19;;;;;;;10.30;3.90;;;;;;;40.06;26.96;100155.05;107844;1290;23080;-70
2023/07/18 10:11:00;;;;;;;6.40;3.70;;;;;;;40.06;27.09;100153.05;107829;1290;21992;-62
2023/07/18 10:13:25;;;;;;;6.70;4.10;;;;;;;40.10;27.19;100150.04;108051;1289;22000;-66
2023/07/18 10:16:12;;;;;;;15.00;3.70;;;;;;;40.15;27.22;100146.19;107983;1290;22014;-60
2023/07/18 10:18:48;;;;;;;6.00;3.60;;;;;;;40.36;27.27;100139.33;108043;1280;21998;-62
2023/07/18 10:21:31;;;;;;;5.20;3.70;;;;;;;40.53;26.85;100139.40;107994;1281;21997;-67
2023/07/18 10:23:57;;;;;;;11.20;4.00;;;;;;;40.60;26.65;100140.04;107946;1290;22516;-61
2023/07/18 10:26:33;;;;;;;8.40;4.20;;;;;;;40.55;26.65;100138.71;107917;1280;21984;-66
2023/07/18 10:29:01;;;;;;;7.60;3.60;;;;;;;40.47;26.85;100137.32;108092;1280;23965;-62
2023/07/18 10:31:28;;;;;;;9.40;4.00;;;;;;;40.48;26.92;100131.58;107958;1290;23058;-62
2023/07/18 10:34:16;;;;;;;7.90;4.00;;;;;;;40.62;26.34;100139.73;107958;1284;21993;-67
2023/07/18 10:37:01;;;;;;;6.90;3.50;;;;;;;40.70;26.62;100144.13;107920;1286;24213;-66
2023/07/18 10:39:40;;;;;;;6.00;3.80;;;;;;;40.74;26.73;100140.24;107965;1278;21993;-63
2023/07/18 10:42:20;;;;;;;9.20;4.20;;;;;;;40.70;26.34;100139.16;108110;1290;22128;-63
2023/07/18 10:44:52;;;;;;;7.50;4.10;;;;;;;40.66;26.29;100137.49;108018;1283;23710;-63
2023/07/18 10:47:18;;;;;;;6.30;4.00;;;;;;;40.68;26.61;100132.14;108011;1289;24351;-64
2023/07/18 10:49:45;;;;;;;6.00;3.90;;;;;;;40.87;26.53;100130.20;107948;1283;22003;-63
2023/07/18 10:52:11;;;;;;;6.40;3.90;;;;;;;41.02;26.11;100125.27;107950;1290;21998;-63
2023/07/18 10:54:37;;;;;;;5.70;3.40;;;;;;;41.15;26.24;100118.25;107974;1289;23336;-62
2023/07/18 10:57:03;;;;;;;4.50;3.20;;;;;;;41.21;26.35;100122.90;107972;1289;21997;-62
2023/07/18 10:59:29;;;;;;;6.40;3.50;;;;;;;41.30;26.29;100119.96;107987;1290;21998;-62
2023/07/18 11:01:58;;;;;;;6.80;3.90;;;;;;;41.42;26.20;100112.39;108000;1289;21999;-62
2023/07/18 11:04:24;;;;;;;6.80;3.90;;;;;;;41.46;25.89;100111.20;107821;1290;21997;-62
2023/07/18 11:06:54;;;;;;;7.80;4.30;;;;;;;41.51;26.07;100108.35;107979;1283;21997;-62
2023/07/18 11:09:19;;;;;;;9.60;3.90;;;;;;;41.57;25.82;100107.14;107844;1289;21997;-62
2023/07/18 11:11:45;;;;;;;4.60;3.50;;;;;;;41.51;26.10;100104.09;108016;1290;21995;-67
2023/07/18 11:14:11;;;;;;;8.60;3.90;;;;;;;41.60;26.00;100098.30;107963;1290;21990;-68
2023/07/18 11:16:36;;;;;;;4.30;3.50;;;;;;;41.66;25.42;100102.27;107865;1284;21993;-62
2023/07/18 11:19:05;;;;;;;9.40;4.20;;;;;;;41.66;25.76;100101.30;107963;1290;22027;-61
2023/07/18 11:21:32;;;;;;;6.00;3.50;;;;;;;41.83;26.05;100101.05;108048;1284;21995;-62